sensor_id;sensor_type;location;lat;lon;timestamp;temperature;humidity
7598;DHT22;3840;59.32098800;18.06423600;2023-08-01T00:02:01;14.30;99.90
7598;DHT22;3840;59.32098800;18.06423600;2023-08-01T00:04:27;14.40;99.90
7598;DHT22;3840;59.32098800;18.06423600;2023-08-01T00:06:53;14.30;99.90
7598;DHT22;3840;59.32098800;18.06423600;2023-08-01T00:09:18;14.30;99.90
7598;DHT22;3840;59.32098800;18.06423600;2023-08-01T00:11:44;14.30;99.90
7598;DHT22;3840;59.32098800;18.06423600;2023-08-01T00:14:10;14.30;99.90
7598;DHT22;3840;59.32098800;18.06423600;2023-08-01T00:16:36;14.30;99.90
7598;DHT22;3840;59.32098800;18.06423600;2023-08-01T00:19:02;14.30;99.90
7598;DHT22;3840;59.32098800;18.06423600;2023-08-01T00:21:27;14.30;99.90
7598;DHT22;3840;59.32098800;18.06423600;2023-08-01T00:23:56;14.30;99.90
7598;DHT22;3840;59.32098800;18.06423600;2023-08-01T00:26:21;14.40;99.90
7598;DHT22;3840;59.32098800;18.06423600;2023-08-01T00:28:47;14.40;99.90
7598;DHT22;3840;59.32098800;18.06423600;2023-08-01T00:31:13;14.50;99.90
7598;DHT22;3840;59.32098800;18.06423600;2023-08-01T00:33:39;14.40;99.90
7598;DHT22;3840;59.32098800;18.06423600;2023-08-01T00:36:06;14.40;99.90
7598;DHT22;3840;59.32098800;18.06423600;2023-08-01T00:38:35;14.40;99.90
7598;DHT22;3840;59.32098800;18.06423600;2023-08-01T00:41:03;14.40;99.90
7598;DHT22;3840;59.32098800;18.06423600;2023-08-01T00:43:28;14.40;99.90
7598;DHT22;3840;59.32098800;18.06423600;2023-08-01T00:45:59;14.40;99.90
7598;DHT22;3840;59.32098800;18.06423600;2023-08-01T00:48:29;14.40;99.90
7598;DHT22;3840;59.32098800;18.06423600;2023-08-01T00:50:59;14.40;99.90
7598;DHT22;3840;59.32098800;18.06423600;2023-08-01T00:53:31;14.40;99.90
7598;DHT22;3840;59.32098800;18.06423600;2023-08-01T00:56:00;14.40;99.90
7598;DHT22;3840;59.32098800;18.06423600;2023-08-01T00:58:26;14.40;99.90
7598;DHT22;3840;59.32098800;18.06423600;2023-08-01T01:00:52;14.50;99.90
7598;DHT22;3840;59.32098800;18.06423600;2023-08-01T01:03:18;14.50;99.90
7598;DHT22;3840;59.32098800;18.06423600;2023-08-01T01:05:56;14.50;99.90
7598;DHT22;3840;59.32098800;18.06423600;2023-08-01T01:08:23;14.50;99.90
7598;DHT22;3840;59.32098800;18.06423600;2023-08-01T01:10:48;14.40;99.90
7598;DHT22;3840;59.32098800;18.06423600;2023-08-01T01:13:14;14.40;99.90
7598;DHT22;3840;59.32098800;18.06423600;2023-08-01T01:15:40;14.40;99.90
7598;DHT22;3840;59.32098800;18.06423600;2023-08-01T01:18:06;14.40;99.90
7598;DHT22;3840;59.32098800;18.06423600;2023-08-01T01:20:34;14.40;99.90
7598;DHT22;3840;59.32098800;18.06423600;2023-08-01T01:23:01;14.40;99.90
7598;DHT22;3840;59.32098800;18.06423600;2023-08-01T01:25:31;14.30;99.90
7598;DHT22;3840;59.32098800;18.06423600;2023-08-01T01:27:59;14.30;99.90
7598;DHT22;3840;59.32098800;18.06423600;2023-08-01T01:30:27;14.20;99.90
7598;DHT22;3840;59.32098800;18.06423600;2023-08-01T01:32:53;14.20;99.90
7598;DHT22;3840;59.32098800;18.06423600;2023-08-01T01:35:19;14.10;99.90
7598;DHT22;3840;59.32098800;18.06423600;2023-08-01T01:37:45;14.20;99.90
7598;DHT22;3840;59.32098800;18.06423600;2023-08-01T01:40:11;14.20;99.90
7598;DHT22;3840;59.32098800;18.06423600;2023-08-01T01:42:37;14.20;99.90
7598;DHT22;3840;59.32098800;18.06423600;2023-08-01T01:45:03;14.20;99.90
7598;DHT22;3840;59.32098800;18.06423600;2023-08-01T01:47:29;14.20;99.90
7598;DHT22;3840;59.32098800;18.06423600;2023-08-01T01:49:55;14.20;99.90
7598;DHT22;3840;59.32098800;18.06423600;2023-08-01T01:52:21;14.20;99.90
7598;DHT22;3840;59.32098800;18.06423600;2023-08-01T01:54:47;14.20;99.90
7598;DHT22;3840;59.32098800;18.06423600;2023-08-01T01:57:12;14.20;99.90
7598;DHT22;3840;59.32098800;18.06423600;2023-08-01T01:59:38;14.10;99.90
7598;DHT22;3840;59.32098800;18.06423600;2023-08-01T02:02:04;14.10;99.90
7598;DHT22;3840;59.32098800;18.06423600;2023-08-01T02:04:30;14.00;99.90
7598;DHT22;3840;59.32098800;18.06423600;2023-08-01T02:06:56;14.00;99.90
7598;DHT22;3840;59.32098800;18.06423600;2023-08-01T02:09:22;13.90;99.90
7598;DHT22;3840;59.32098800;18.06423600;2023-08-01T02:11:48;13.90;99.90
7598;DHT22;3840;59.32098800;18.06423600;2023-08-01T02:14:14;13.80;99.90
7598;DHT22;3840;59.32098800;18.06423600;2023-08-01T02:16:40;13.80;99.90
7598;DHT22;3840;59.32098800;18.06423600;2023-08-01T02:19:06;13.80;99.90
7598;DHT22;3840;59.32098800;18.06423600;2023-08-01T02:21:31;13.80;99.90
7598;DHT22;3840;59.32098800;18.06423600;2023-08-01T02:23:57;13.80;99.90
7598;DHT22;3840;59.32098800;18.06423600;2023-08-01T02:26:23;13.80;99.90
7598;DHT22;3840;59.32098800;18.06423600;2023-08-01T02:28:50;13.70;99.90
7598;DHT22;3840;59.32098800;18.06423600;2023-08-01T02:31:16;13.70;99.90
7598;DHT22;3840;59.32098800;18.06423600;2023-08-01T02:33:42;13.80;99.90
7598;DHT22;3840;59.32098800;18.06423600;2023-08-01T02:36:08;13.80;99.90
7598;DHT22;3840;59.32098800;18.06423600;2023-08-01T02:38:34;13.80;99.90
7598;DHT22;3840;59.32098800;18.06423600;2023-08-01T02:41:00;13.80;99.90
7598;DHT22;3840;59.32098800;18.06423600;2023-08-01T02:43:25;13.70;99.90
7598;DHT22;3840;59.32098800;18.06423600;2023-08-01T02:45:51;13.80;99.90
7598;DHT22;3840;59.32098800;18.06423600;2023-08-01T02:48:17;13.80;99.90
7598;DHT22;3840;59.32098800;18.06423600;2023-08-01T02:50:42;13.80;99.90
7598;DHT22;3840;59.32098800;18.06423600;2023-08-01T02:53:08;13.80;99.90
7598;DHT22;3840;59.32098800;18.06423600;2023-08-01T02:55:34;13.80;99.90
7598;DHT22;3840;59.32098800;18.06423600;2023-08-01T02:57:59;13.80;99.90
7598;DHT22;3840;59.32098800;18.06423600;2023-08-01T03:00:25;13.80;99.90
7598;DHT22;3840;59.32098800;18.06423600;2023-08-01T03:02:51;14.00;99.90
7598;DHT22;3840;59.32098800;18.06423600;2023-08-01T03:05:17;14.40;99.90
7598;DHT22;3840;59.32098800;18.06423600;2023-08-01T03:07:43;14.70;99.90
7598;DHT22;3840;59.32098800;18.06423600;2023-08-01T03:10:09;15.10;99.90
7598;DHT22;3840;59.32098800;18.06423600;2023-08-01T03:12:36;15.20;99.90
7598;DHT22;3840;59.32098800;18.06423600;2023-08-01T03:15:04;15.50;99.90
7598;DHT22;3840;59.32098800;18.06423600;2023-08-01T03:17:29;15.90;99.90
7598;DHT22;3840;59.32098800;18.06423600;2023-08-01T03:19:55;16.30;99.90
7598;DHT22;3840;59.32098800;18.06423600;2023-08-01T03:22:22;16.10;99.90
7598;DHT22;3840;59.32098800;18.06423600;2023-08-01T03:24:48;15.60;99.90
7598;DHT22;3840;59.32098800;18.06423600;2023-08-01T03:27:14;15.40;99.90
7598;DHT22;3840;59.32098800;18.06423600;2023-08-01T03:29:40;15.10;99.90
7598;DHT22;3840;59.32098800;18.06423600;2023-08-01T03:32:05;15.00;99.90
7598;DHT22;3840;59.32098800;18.06423600;2023-08-01T03:34:31;14.90;99.90
7598;DHT22;3840;59.32098800;18.06423600;2023-08-01T03:36:58;14.80;99.90
7598;DHT22;3840;59.32098800;18.06423600;2023-08-01T03:39:24;14.80;99.90
7598;DHT22;3840;59.32098800;18.06423600;2023-08-01T03:41:50;14.80;99.90
7598;DHT22;3840;59.32098800;18.06423600;2023-08-01T03:44:16;14.80;99.90
7598;DHT22;3840;59.32098800;18.06423600;2023-08-01T03:46:43;14.80;99.90
7598;DHT22;3840;59.32098800;18.06423600;2023-08-01T03:49:08;14.80;99.90
7598;DHT22;3840;59.32098800;18.06423600;2023-08-01T03:51:35;14.70;99.90
7598;DHT22;3840;59.32098800;18.06423600;2023-08-01T03:54:00;14.80;99.90
7598;DHT22;3840;59.32098800;18.06423600;2023-08-01T03:56:26;14.80;99.90
7598;DHT22;3840;59.32098800;18.06423600;2023-08-01T03:58:53;14.90;99.90
7598;DHT22;3840;59.32098800;18.06423600;2023-08-01T04:01:18;14.90;99.90
7598;DHT22;3840;59.32098800;18.06423600;2023-08-01T04:03:46;15.00;99.90
7598;DHT22;3840;59.32098800;18.06423600;2023-08-01T04:06:12;15.00;99.90
7598;DHT22;3840;59.32098800;18.06423600;2023-08-01T04:08:40;15.10;99.90
7598;DHT22;3840;59.32098800;18.06423600;2023-08-01T04:11:06;15.30;99.90
7598;DHT22;3840;59.32098800;18.06423600;2023-08-01T04:13:32;15.90;99.90
7598;DHT22;3840;59.32098800;18.06423600;2023-08-01T04:15:58;16.60;99.90
7598;DHT22;3840;59.32098800;18.06423600;2023-08-01T04:18:23;17.90;99.90
7598;DHT22;3840;59.32098800;18.06423600;2023-08-01T04:20:49;19.10;99.90
7598;DHT22;3840;59.32098800;18.06423600;2023-08-01T04:23:16;19.40;99.90
7598;DHT22;3840;59.32098800;18.06423600;2023-08-01T04:25:42;19.60;99.90
7598;DHT22;3840;59.32098800;18.06423600;2023-08-01T04:28:08;20.30;99.90
7598;DHT22;3840;59.32098800;18.06423600;2023-08-01T04:30:34;20.70;99.90
7598;DHT22;3840;59.32098800;18.06423600;2023-08-01T04:32:59;20.90;99.90
7598;DHT22;3840;59.32098800;18.06423600;2023-08-01T04:35:25;21.10;99.90
7598;DHT22;3840;59.32098800;18.06423600;2023-08-01T04:37:51;21.30;99.90
7598;DHT22;3840;59.32098800;18.06423600;2023-08-01T04:40:17;21.50;99.90
7598;DHT22;3840;59.32098800;18.06423600;2023-08-01T04:42:42;21.90;99.90
7598;DHT22;3840;59.32098800;18.06423600;2023-08-01T04:45:08;21.90;99.90
7598;DHT22;3840;59.32098800;18.06423600;2023-08-01T04:47:34;22.10;99.90
7598;DHT22;3840;59.32098800;18.06423600;2023-08-01T04:50:01;22.30;99.90
7598;DHT22;3840;59.32098800;18.06423600;2023-08-01T04:52:26;22.10;99.90
7598;DHT22;3840;59.32098800;18.06423600;2023-08-01T04:54:52;21.80;99.90
7598;DHT22;3840;59.32098800;18.06423600;2023-08-01T04:57:18;20.90;99.90
7598;DHT22;3840;59.32098800;18.06423600;2023-08-01T04:59:44;20.00;99.90
7598;DHT22;3840;59.32098800;18.06423600;2023-08-01T05:02:09;19.00;99.90
7598;DHT22;3840;59.32098800;18.06423600;2023-08-01T05:04:35;18.30;99.90
7598;DHT22;3840;59.32098800;18.06423600;2023-08-01T05:07:01;17.90;99.90
7598;DHT22;3840;59.32098800;18.06423600;2023-08-01T05:09:27;17.60;99.90
7598;DHT22;3840;59.32098800;18.06423600;2023-08-01T05:11:54;17.30;99.90
7598;DHT22;3840;59.32098800;18.06423600;2023-08-01T05:14:20;17.30;99.90
7598;DHT22;3840;59.32098800;18.06423600;2023-08-01T05:16:46;17.30;99.90
7598;DHT22;3840;59.32098800;18.06423600;2023-08-01T05:19:11;17.50;99.90
7598;DHT22;3840;59.32098800;18.06423600;2023-08-01T05:21:37;17.60;99.90
7598;DHT22;3840;59.32098800;18.06423600;2023-08-01T05:24:03;17.60;99.90
7598;DHT22;3840;59.32098800;18.06423600;2023-08-01T05:26:29;17.60;99.90
7598;DHT22;3840;59.32098800;18.06423600;2023-08-01T05:28:54;17.70;99.90
7598;DHT22;3840;59.32098800;18.06423600;2023-08-01T05:31:20;17.70;99.90
7598;DHT22;3840;59.32098800;18.06423600;2023-08-01T05:33:46;17.70;99.90
7598;DHT22;3840;59.32098800;18.06423600;2023-08-01T05:36:11;17.80;99.90
7598;DHT22;3840;59.32098800;18.06423600;2023-08-01T05:38:37;17.70;99.90
7598;DHT22;3840;59.32098800;18.06423600;2023-08-01T05:41:03;17.50;99.90
7598;DHT22;3840;59.32098800;18.06423600;2023-08-01T05:43:28;17.30;99.90
7598;DHT22;3840;59.32098800;18.06423600;2023-08-01T05:45:54;17.30;99.90
7598;DHT22;3840;59.32098800;18.06423600;2023-08-01T05:48:20;17.40;99.90
7598;DHT22;3840;59.32098800;18.06423600;2023-08-01T05:50:47;17.40;99.90
7598;DHT22;3840;59.32098800;18.06423600;2023-08-01T05:53:13;17.40;99.90
7598;DHT22;3840;59.32098800;18.06423600;2023-08-01T05:55:39;17.50;99.90
7598;DHT22;3840;59.32098800;18.06423600;2023-08-01T05:58:05;17.60;99.90
7598;DHT22;3840;59.32098800;18.06423600;2023-08-01T06:00:31;17.70;99.90
7598;DHT22;3840;59.32098800;18.06423600;2023-08-01T06:02:56;17.60;99.90
7598;DHT22;3840;59.32098800;18.06423600;2023-08-01T06:05:22;17.80;99.90
7598;DHT22;3840;59.32098800;18.06423600;2023-08-01T06:07:48;17.80;99.90
7598;DHT22;3840;59.32098800;18.06423600;2023-08-01T06:10:14;17.90;99.90
7598;DHT22;3840;59.32098800;18.06423600;2023-08-01T06:12:39;17.90;99.90
7598;DHT22;3840;59.32098800;18.06423600;2023-08-01T06:15:06;17.90;99.90
7598;DHT22;3840;59.32098800;18.06423600;2023-08-01T06:17:31;17.90;99.90
7598;DHT22;3840;59.32098800;18.06423600;2023-08-01T06:19:57;17.90;99.90
7598;DHT22;3840;59.32098800;18.06423600;2023-08-01T06:22:23;17.90;99.90
7598;DHT22;3840;59.32098800;18.06423600;2023-08-01T06:24:49;17.90;99.90
7598;DHT22;3840;59.32098800;18.06423600;2023-08-01T06:27:14;17.90;99.90
7598;DHT22;3840;59.32098800;18.06423600;2023-08-01T06:29:40;18.00;99.90
7598;DHT22;3840;59.32098800;18.06423600;2023-08-01T06:32:06;18.00;99.90
7598;DHT22;3840;59.32098800;18.06423600;2023-08-01T06:34:33;18.00;99.90
7598;DHT22;3840;59.32098800;18.06423600;2023-08-01T06:36:59;18.10;99.90
7598;DHT22;3840;59.32098800;18.06423600;2023-08-01T06:39:25;18.00;99.90
7598;DHT22;3840;59.32098800;18.06423600;2023-08-01T06:41:51;18.10;99.90
7598;DHT22;3840;59.32098800;18.06423600;2023-08-01T06:44:16;18.30;99.90
7598;DHT22;3840;59.32098800;18.06423600;2023-08-01T06:46:42;18.50;99.90
7598;DHT22;3840;59.32098800;18.06423600;2023-08-01T06:49:08;19.00;99.90
7598;DHT22;3840;59.32098800;18.06423600;2023-08-01T06:51:34;19.10;99.90
7598;DHT22;3840;59.32098800;18.06423600;2023-08-01T06:54:00;19.20;99.90
7598;DHT22;3840;59.32098800;18.06423600;2023-08-01T06:56:25;19.20;99.90
7598;DHT22;3840;59.32098800;18.06423600;2023-08-01T06:58:51;19.20;99.90
7598;DHT22;3840;59.32098800;18.06423600;2023-08-01T07:01:18;19.20;99.90
7598;DHT22;3840;59.32098800;18.06423600;2023-08-01T07:03:44;19.30;99.90
7598;DHT22;3840;59.32098800;18.06423600;2023-08-01T07:06:11;19.30;99.90
7598;DHT22;3840;59.32098800;18.06423600;2023-08-01T07:08:37;19.50;99.90
7598;DHT22;3840;59.32098800;18.06423600;2023-08-01T07:11:02;19.40;99.90
7598;DHT22;3840;59.32098800;18.06423600;2023-08-01T07:13:28;19.50;99.90
7598;DHT22;3840;59.32098800;18.06423600;2023-08-01T07:15:54;19.40;99.90
7598;DHT22;3840;59.32098800;18.06423600;2023-08-01T07:18:20;19.20;99.90
7598;DHT22;3840;59.32098800;18.06423600;2023-08-01T07:20:46;18.90;99.90
7598;DHT22;3840;59.32098800;18.06423600;2023-08-01T07:23:12;18.70;99.90
7598;DHT22;3840;59.32098800;18.06423600;2023-08-01T07:25:38;18.70;99.90
7598;DHT22;3840;59.32098800;18.06423600;2023-08-01T07:28:05;18.60;99.90
7598;DHT22;3840;59.32098800;18.06423600;2023-08-01T07:30:30;18.60;99.90
7598;DHT22;3840;59.32098800;18.06423600;2023-08-01T07:32:56;18.70;99.90
7598;DHT22;3840;59.32098800;18.06423600;2023-08-01T07:35:22;18.70;99.90
7598;DHT22;3840;59.32098800;18.06423600;2023-08-01T07:37:48;18.60;99.90
7598;DHT22;3840;59.32098800;18.06423600;2023-08-01T07:40:15;18.60;99.90
7598;DHT22;3840;59.32098800;18.06423600;2023-08-01T07:42:41;18.60;99.90
7598;DHT22;3840;59.32098800;18.06423600;2023-08-01T07:45:07;18.60;99.90
7598;DHT22;3840;59.32098800;18.06423600;2023-08-01T07:47:34;18.70;99.90
7598;DHT22;3840;59.32098800;18.06423600;2023-08-01T07:50:00;18.80;99.90
7598;DHT22;3840;59.32098800;18.06423600;2023-08-01T07:52:26;18.90;99.90
7598;DHT22;3840;59.32098800;18.06423600;2023-08-01T07:54:52;19.10;99.90
7598;DHT22;3840;59.32098800;18.06423600;2023-08-01T07:57:19;19.30;99.90
7598;DHT22;3840;59.32098800;18.06423600;2023-08-01T07:59:45;19.40;99.90
7598;DHT22;3840;59.32098800;18.06423600;2023-08-01T08:02:10;19.60;99.90
7598;DHT22;3840;59.32098800;18.06423600;2023-08-01T08:04:36;19.60;99.90
7598;DHT22;3840;59.32098800;18.06423600;2023-08-01T08:07:02;19.80;99.90
7598;DHT22;3840;59.32098800;18.06423600;2023-08-01T08:09:28;19.70;99.90
7598;DHT22;3840;59.32098800;18.06423600;2023-08-01T08:11:54;19.40;99.90
7598;DHT22;3840;59.32098800;18.06423600;2023-08-01T08:14:22;19.20;99.90
7598;DHT22;3840;59.32098800;18.06423600;2023-08-01T08:16:49;19.00;99.90
7598;DHT22;3840;59.32098800;18.06423600;2023-08-01T08:19:15;18.90;99.90
7598;DHT22;3840;59.32098800;18.06423600;2023-08-01T08:21:41;18.80;99.90
7598;DHT22;3840;59.32098800;18.06423600;2023-08-01T08:24:07;19.00;99.90
7598;DHT22;3840;59.32098800;18.06423600;2023-08-01T08:26:33;19.00;99.90
7598;DHT22;3840;59.32098800;18.06423600;2023-08-01T08:29:03;19.20;99.90
7598;DHT22;3840;59.32098800;18.06423600;2023-08-01T08:31:31;19.40;99.90
7598;DHT22;3840;59.32098800;18.06423600;2023-08-01T08:33:57;19.60;99.90
7598;DHT22;3840;59.32098800;18.06423600;2023-08-01T08:36:22;19.70;99.90
7598;DHT22;3840;59.32098800;18.06423600;2023-08-01T08:38:48;19.80;99.90
7598;DHT22;3840;59.32098800;18.06423600;2023-08-01T08:41:20;20.00;99.90
7598;DHT22;3840;59.32098800;18.06423600;2023-08-01T08:43:48;20.10;99.90
7598;DHT22;3840;59.32098800;18.06423600;2023-08-01T08:46:16;20.20;99.90
7598;DHT22;3840;59.32098800;18.06423600;2023-08-01T08:48:42;20.30;99.90
7598;DHT22;3840;59.32098800;18.06423600;2023-08-01T08:51:12;20.40;99.90
7598;DHT22;3840;59.32098800;18.06423600;2023-08-01T08:53:40;20.50;99.90
7598;DHT22;3840;59.32098800;18.06423600;2023-08-01T08:56:09;20.50;99.90
7598;DHT22;3840;59.32098800;18.06423600;2023-08-01T08:58:37;20.70;99.90
7598;DHT22;3840;59.32098800;18.06423600;2023-08-01T09:01:06;20.70;99.90
7598;DHT22;3840;59.32098800;18.06423600;2023-08-01T09:03:33;20.90;99.90
7598;DHT22;3840;59.32098800;18.06423600;2023-08-01T09:06:07;21.10;99.90
7598;DHT22;3840;59.32098800;18.06423600;2023-08-01T09:08:36;21.30;99.90
7598;DHT22;3840;59.32098800;18.06423600;2023-08-01T09:11:03;21.20;99.90
7598;DHT22;3840;59.32098800;18.06423600;2023-08-01T09:13:28;21.30;99.90
7598;DHT22;3840;59.32098800;18.06423600;2023-08-01T09:15:55;21.30;99.90
7598;DHT22;3840;59.32098800;18.06423600;2023-08-01T09:18:21;21.30;99.90
7598;DHT22;3840;59.32098800;18.06423600;2023-08-01T09:20:49;21.30;99.90
7598;DHT22;3840;59.32098800;18.06423600;2023-08-01T09:23:18;21.30;99.90
7598;DHT22;3840;59.32098800;18.06423600;2023-08-01T09:25:46;21.00;99.90
7598;DHT22;3840;59.32098800;18.06423600;2023-08-01T09:28:20;21.20;99.90
7598;DHT22;3840;59.32098800;18.06423600;2023-08-01T09:30:51;21.30;99.90
7598;DHT22;3840;59.32098800;18.06423600;2023-08-01T09:33:18;21.50;99.90
7598;DHT22;3840;59.32098800;18.06423600;2023-08-01T09:35:44;21.80;99.90
7598;DHT22;3840;59.32098800;18.06423600;2023-08-01T09:38:14;21.80;99.90
7598;DHT22;3840;59.32098800;18.06423600;2023-08-01T09:40:44;21.70;99.90
7598;DHT22;3840;59.32098800;18.06423600;2023-08-01T09:43:12;21.70;99.90
7598;DHT22;3840;59.32098800;18.06423600;2023-08-01T09:45:38;21.90;99.90
7598;DHT22;3840;59.32098800;18.06423600;2023-08-01T09:48:28;21.70;99.90
7598;DHT22;3840;59.32098800;18.06423600;2023-08-01T09:51:07;21.60;99.90
7598;DHT22;3840;59.32098800;18.06423600;2023-08-01T09:53:34;21.60;99.90
7598;DHT22;3840;59.32098800;18.06423600;2023-08-01T09:56:01;21.40;99.90
7598;DHT22;3840;59.32098800;18.06423600;2023-08-01T09:58:33;21.40;99.90
7598;DHT22;3840;59.32098800;18.06423600;2023-08-01T10:01:00;21.40;99.90
7598;DHT22;3840;59.32098800;18.06423600;2023-08-01T10:03:29;21.50;99.90
7598;DHT22;3840;59.32098800;18.06423600;2023-08-01T10:05:56;21.70;99.90
7598;DHT22;3840;59.32098800;18.06423600;2023-08-01T10:08:23;21.90;99.90
7598;DHT22;3840;59.32098800;18.06423600;2023-08-01T10:10:50;21.70;99.90
7598;DHT22;3840;59.32098800;18.06423600;2023-08-01T10:13:20;21.60;99.90
7598;DHT22;3840;59.32098800;18.06423600;2023-08-01T10:15:50;21.50;99.90
7598;DHT22;3840;59.32098800;18.06423600;2023-08-01T10:18:18;21.50;99.90
7598;DHT22;3840;59.32098800;18.06423600;2023-08-01T10:20:44;21.60;99.90
7598;DHT22;3840;59.32098800;18.06423600;2023-08-01T10:23:11;21.40;99.90
7598;DHT22;3840;59.32098800;18.06423600;2023-08-01T10:25:38;21.40;99.90
7598;DHT22;3840;59.32098800;18.06423600;2023-08-01T10:28:06;21.60;99.90
7598;DHT22;3840;59.32098800;18.06423600;2023-08-01T10:30:33;21.20;99.90
7598;DHT22;3840;59.32098800;18.06423600;2023-08-01T10:33:00;21.10;99.90
7598;DHT22;3840;59.32098800;18.06423600;2023-08-01T10:35:39;21.30;99.90
7598;DHT22;3840;59.32098800;18.06423600;2023-08-01T10:38:10;21.20;99.90
7598;DHT22;3840;59.32098800;18.06423600;2023-08-01T10:40:41;21.20;99.90
7598;DHT22;3840;59.32098800;18.06423600;2023-08-01T10:43:19;21.30;99.90
7598;DHT22;3840;59.32098800;18.06423600;2023-08-01T10:45:48;21.50;99.90
7598;DHT22;3840;59.32098800;18.06423600;2023-08-01T10:48:14;21.60;99.90
7598;DHT22;3840;59.32098800;18.06423600;2023-08-01T10:50:39;21.60;99.90
7598;DHT22;3840;59.32098800;18.06423600;2023-08-01T10:53:08;21.50;99.90
7598;DHT22;3840;59.32098800;18.06423600;2023-08-01T10:55:45;21.50;99.90
7598;DHT22;3840;59.32098800;18.06423600;2023-08-01T10:58:12;21.60;99.90
7598;DHT22;3840;59.32098800;18.06423600;2023-08-01T11:00:38;21.80;99.90
7598;DHT22;3840;59.32098800;18.06423600;2023-08-01T11:03:04;21.90;99.90
7598;DHT22;3840;59.32098800;18.06423600;2023-08-01T11:05:30;21.90;99.90
7598;DHT22;3840;59.32098800;18.06423600;2023-08-01T11:07:57;21.70;99.90
7598;DHT22;3840;59.32098800;18.06423600;2023-08-01T11:10:26;21.50;99.90
7598;DHT22;3840;59.32098800;18.06423600;2023-08-01T11:12:55;21.70;99.90
7598;DHT22;3840;59.32098800;18.06423600;2023-08-01T11:15:21;21.90;99.90
7598;DHT22;3840;59.32098800;18.06423600;2023-08-01T11:17:49;21.90;99.90
7598;DHT22;3840;59.32098800;18.06423600;2023-08-01T11:20:17;22.10;99.90
7598;DHT22;3840;59.32098800;18.06423600;2023-08-01T11:22:51;22.00;99.90
7598;DHT22;3840;59.32098800;18.06423600;2023-08-01T11:25:17;21.90;99.90
7598;DHT22;3840;59.32098800;18.06423600;2023-08-01T11:27:43;21.80;99.90
7598;DHT22;3840;59.32098800;18.06423600;2023-08-01T11:30:09;21.60;99.90
7598;DHT22;3840;59.32098800;18.06423600;2023-08-01T11:32:37;21.50;99.90
7598;DHT22;3840;59.32098800;18.06423600;2023-08-01T11:35:03;21.60;99.90
7598;DHT22;3840;59.32098800;18.06423600;2023-08-01T11:37:33;21.70;99.90
7598;DHT22;3840;59.32098800;18.06423600;2023-08-01T11:39:59;21.60;99.90
7598;DHT22;3840;59.32098800;18.06423600;2023-08-01T11:42:34;21.70;99.90
7598;DHT22;3840;59.32098800;18.06423600;2023-08-01T11:45:15;21.80;99.90
7598;DHT22;3840;59.32098800;18.06423600;2023-08-01T11:47:48;22.00;99.90
7598;DHT22;3840;59.32098800;18.06423600;2023-08-01T11:50:14;22.00;99.90
7598;DHT22;3840;59.32098800;18.06423600;2023-08-01T11:52:46;22.00;99.90
7598;DHT22;3840;59.32098800;18.06423600;2023-08-01T11:55:34;22.00;99.90
7598;DHT22;3840;59.32098800;18.06423600;2023-08-01T11:58:00;21.90;99.90
7598;DHT22;3840;59.32098800;18.06423600;2023-08-01T12:00:30;22.10;99.90
7598;DHT22;3840;59.32098800;18.06423600;2023-08-01T12:03:06;22.30;99.90
7598;DHT22;3840;59.32098800;18.06423600;2023-08-01T12:05:34;22.00;99.90
7598;DHT22;3840;59.32098800;18.06423600;2023-08-01T12:08:13;21.90;99.90
7598;DHT22;3840;59.32098800;18.06423600;2023-08-01T12:10:45;21.80;99.90
7598;DHT22;3840;59.32098800;18.06423600;2023-08-01T12:13:22;21.60;99.90
7598;DHT22;3840;59.32098800;18.06423600;2023-08-01T12:15:49;21.70;99.90
7598;DHT22;3840;59.32098800;18.06423600;2023-08-01T12:18:24;21.50;99.90
7598;DHT22;3840;59.32098800;18.06423600;2023-08-01T12:20:51;21.40;99.90
7598;DHT22;3840;59.32098800;18.06423600;2023-08-01T12:23:18;21.10;99.90
7598;DHT22;3840;59.32098800;18.06423600;2023-08-01T12:25:44;20.80;99.90
7598;DHT22;3840;59.32098800;18.06423600;2023-08-01T12:28:10;20.90;99.90
7598;DHT22;3840;59.32098800;18.06423600;2023-08-01T12:30:38;20.80;99.90
7598;DHT22;3840;59.32098800;18.06423600;2023-08-01T12:33:05;20.90;99.90
7598;DHT22;3840;59.32098800;18.06423600;2023-08-01T12:35:32;20.80;99.90
7598;DHT22;3840;59.32098800;18.06423600;2023-08-01T12:37:57;20.50;99.90
7598;DHT22;3840;59.32098800;18.06423600;2023-08-01T12:40:24;20.40;99.90
7598;DHT22;3840;59.32098800;18.06423600;2023-08-01T12:42:50;20.50;99.90
7598;DHT22;3840;59.32098800;18.06423600;2023-08-01T12:45:16;20.60;99.90
7598;DHT22;3840;59.32098800;18.06423600;2023-08-01T12:47:42;20.70;99.90
7598;DHT22;3840;59.32098800;18.06423600;2023-08-01T12:50:08;20.70;99.90
7598;DHT22;3840;59.32098800;18.06423600;2023-08-01T12:52:34;20.60;99.90
7598;DHT22;3840;59.32098800;18.06423600;2023-08-01T12:55:00;20.70;99.90
7598;DHT22;3840;59.32098800;18.06423600;2023-08-01T12:57:25;20.80;99.90
7598;DHT22;3840;59.32098800;18.06423600;2023-08-01T12:59:51;20.80;99.90
7598;DHT22;3840;59.32098800;18.06423600;2023-08-01T13:02:17;20.80;99.90
7598;DHT22;3840;59.32098800;18.06423600;2023-08-01T13:04:43;20.80;99.90
7598;DHT22;3840;59.32098800;18.06423600;2023-08-01T13:07:08;20.80;99.90
7598;DHT22;3840;59.32098800;18.06423600;2023-08-01T13:09:34;20.70;99.90
7598;DHT22;3840;59.32098800;18.06423600;2023-08-01T13:12:00;20.70;99.90
7598;DHT22;3840;59.32098800;18.06423600;2023-08-01T13:14:26;20.70;99.90
7598;DHT22;3840;59.32098800;18.06423600;2023-08-01T13:16:52;20.80;99.90
7598;DHT22;3840;59.32098800;18.06423600;2023-08-01T13:19:18;20.80;99.90
7598;DHT22;3840;59.32098800;18.06423600;2023-08-01T13:21:44;20.90;99.90
7598;DHT22;3840;59.32098800;18.06423600;2023-08-01T13:24:10;20.90;99.90
7598;DHT22;3840;59.32098800;18.06423600;2023-08-01T13:26:36;20.90;99.90
7598;DHT22;3840;59.32098800;18.06423600;2023-08-01T13:29:02;20.80;99.90
7598;DHT22;3840;59.32098800;18.06423600;2023-08-01T13:31:28;20.70;99.90
7598;DHT22;3840;59.32098800;18.06423600;2023-08-01T13:33:55;20.70;99.90